createdAt,value
2018-05-23T00:00:58.776Z,47.53
2018-05-23T00:03:27.910Z,54.60
2018-05-23T00:05:56.105Z,57.30
2018-05-23T00:08:24.973Z,50.17
2018-05-23T00:10:53.316Z,53.17
2018-05-23T00:13:22.105Z,55.90
2018-05-23T00:15:50.289Z,59.63
2018-05-23T00:18:19.138Z,70.63
2018-05-23T00:20:47.469Z,47.77
2018-05-23T00:23:17.633Z,51.20
2018-05-23T00:25:45.943Z,50.53
2018-05-23T00:28:14.033Z,56.17
2018-05-23T00:30:43.155Z,56.67
2018-05-23T00:33:13.341Z,56.13
2018-05-23T00:35:42.320Z,54.77
2018-05-23T00:38:10.596Z,49.03
2018-05-23T00:40:39.448Z,53.63
2018-05-23T00:43:07.866Z,50.60
2018-05-23T00:45:36.109Z,56.07
2018-05-23T00:48:04.923Z,57.70
2018-05-23T00:50:33.805Z,57.20
2018-05-23T00:53:01.916Z,60.20
2018-05-23T00:55:35.344Z,66.00
2018-05-23T00:58:03.455Z,63.70
2018-05-23T01:00:31.553Z,68.50
2018-05-23T01:02:59.672Z,89.53
2018-05-23T01:05:27.780Z,66.83
2018-05-23T01:07:55.915Z,65.83
2018-05-23T01:10:24.480Z,70.20
2018-05-23T01:12:53.463Z,65.30
2018-05-23T01:15:21.557Z,70.77
2018-05-23T01:17:49.635Z,67.83
2018-05-23T01:20:18.479Z,68.80
2018-05-23T01:22:46.627Z,59.03
2018-05-23T01:25:15.020Z,63.70
2018-05-23T01:27:43.273Z,58.23
2018-05-23T01:30:11.368Z,61.93
2018-05-23T01:32:40.148Z,64.80
2018-05-23T01:35:09.078Z,76.90
2018-05-23T01:37:37.172Z,66.50
2018-05-23T01:40:06.291Z,69.90
2018-05-23T01:42:35.160Z,70.07
2018-05-23T01:45:03.264Z,67.17
2018-05-23T01:47:31.759Z,60.40
2018-05-23T01:49:59.956Z,59.17
2018-05-23T01:52:32.366Z,61.07
2018-05-23T01:55:00.662Z,66.10
2018-05-23T01:57:28.757Z,66.07
2018-05-23T01:59:57.701Z,67.93
2018-05-23T02:02:26.112Z,64.67
2018-05-23T02:04:54.429Z,66.67
2018-05-23T02:07:24.698Z,64.47
2018-05-23T02:09:54.060Z,71.77
2018-05-23T02:12:22.280Z,71.10
2018-05-23T02:14:51.178Z,70.27
2018-05-23T02:17:19.279Z,69.30
2018-05-23T02:19:47.789Z,71.53
2018-05-23T02:22:15.896Z,71.27
2018-05-23T02:24:44.090Z,74.27
2018-05-23T02:27:12.192Z,62.83
2018-05-23T02:29:41.048Z,68.83
2018-05-23T02:32:09.334Z,67.80
2018-05-23T02:34:37.469Z,70.63
2018-05-23T02:37:05.953Z,73.60
2018-05-23T02:39:34.264Z,81.60
2018-05-23T02:42:02.473Z,74.10
2018-05-23T02:44:30.930Z,69.07
2018-05-23T02:46:59.177Z,77.30
2018-05-23T02:49:28.961Z,69.23
2018-05-23T02:51:57.077Z,67.93
2018-05-23T02:54:25.875Z,63.07
2018-05-23T02:56:53.967Z,67.23
2018-05-23T02:59:23.118Z,69.43
2018-05-23T03:01:52.292Z,67.27
2018-05-23T03:04:20.369Z,70.80
2018-05-23T03:06:49.369Z,70.87
2018-05-23T03:09:18.305Z,74.23
2018-05-23T03:11:48.099Z,82.43
2018-05-23T03:14:16.379Z,82.07
2018-05-23T03:16:45.615Z,72.57
2018-05-23T03:19:14.467Z,74.27
2018-05-23T03:21:42.584Z,74.90
2018-05-23T03:24:10.816Z,76.57
2018-05-23T03:26:38.896Z,80.70
2018-05-23T03:29:08.172Z,77.93
2018-05-23T03:31:36.369Z,86.10
2018-05-23T03:34:04.688Z,84.63
2018-05-23T03:36:32.975Z,84.00
2018-05-23T03:39:01.052Z,79.77
2018-05-23T03:41:29.180Z,80.93
2018-05-23T03:43:57.340Z,83.57
2018-05-23T03:46:25.441Z,76.70
2018-05-23T03:48:54.392Z,75.43
2018-05-23T03:51:26.168Z,78.00
2018-05-23T03:53:54.257Z,88.03
2018-05-23T03:56:24.541Z,84.30
2018-05-23T03:58:54.588Z,80.13
2018-05-23T04:01:40.681Z,79.57
2018-05-23T04:04:27.535Z,83.67
2018-05-23T04:10:00.968Z,93.60
2018-05-23T04:12:29.055Z,76.03
2018-05-23T04:14:57.448Z,67.87
2018-05-23T04:17:25.740Z,71.47
2018-05-23T04:19:54.407Z,70.90
2018-05-23T04:22:23.680Z,67.00
2018-05-23T04:24:52.654Z,63.63
2018-05-23T04:27:21.471Z,66.57
2018-05-23T04:29:49.628Z,64.90
2018-05-23T04:32:17.713Z,61.80
2018-05-23T04:34:46.147Z,61.53
2018-05-23T04:37:14.224Z,62.27
2018-05-23T04:39:43.115Z,68.17
2018-05-23T04:42:12.037Z,64.57
2018-05-23T04:44:40.195Z,67.10
2018-05-23T04:47:08.653Z,66.10
2018-05-23T04:49:37.757Z,69.53
2018-05-23T04:52:06.019Z,69.53
2018-05-23T04:54:35.120Z,69.33
2018-05-23T04:57:03.420Z,75.90
2018-05-23T04:59:31.664Z,72.80
2018-05-23T05:02:00.520Z,74.63
2018-05-23T05:04:28.612Z,79.10
2018-05-23T05:06:58.788Z,72.37
2018-05-23T05:09:27.144Z,70.27
2018-05-23T05:11:55.637Z,73.00
2018-05-23T05:14:23.713Z,73.37
2018-05-23T05:16:51.967Z,75.57
2018-05-23T05:19:21.081Z,79.23
2018-05-23T05:21:49.372Z,79.80
2018-05-23T05:24:17.724Z,71.60
2018-05-23T05:26:46.926Z,85.17
2018-05-23T05:29:15.007Z,72.03
2018-05-23T05:31:43.303Z,75.40
2018-05-23T05:34:14.518Z,83.17
2018-05-23T05:36:42.613Z,77.27
2018-05-23T05:39:10.769Z,79.13
2018-05-23T05:41:40.056Z,79.13
2018-05-23T05:44:08.666Z,75.13
2018-05-23T05:46:36.681Z,71.20
2018-05-23T05:49:08.420Z,82.83
2018-05-23T05:51:37.316Z,81.60
2018-05-23T05:54:05.433Z,77.97
2018-05-23T05:56:33.774Z,78.57
2018-05-23T05:59:02.093Z,79.80
2018-05-23T06:01:30.181Z,73.77
2018-05-23T06:03:58.470Z,85.27
2018-05-23T06:06:27.760Z,75.57
2018-05-23T06:08:56.078Z,70.47
2018-05-23T06:11:24.441Z,74.30
2018-05-23T06:13:53.407Z,79.03
2018-05-23T06:16:21.956Z,67.27
2018-05-23T06:18:50.163Z,73.70
2018-05-23T06:21:18.528Z,63.60
2018-05-23T06:23:46.725Z,65.30
2018-05-23T06:26:14.822Z,68.63
2018-05-23T06:28:44.009Z,66.27
2018-05-23T06:31:12.312Z,68.20
2018-05-23T06:33:41.086Z,71.83
2018-05-23T06:36:09.173Z,62.53
2018-05-23T06:38:37.476Z,62.43
2018-05-23T06:41:07.240Z,68.97
2018-05-23T06:43:35.493Z,59.03
2018-05-23T06:46:03.871Z,62.50
2018-05-23T06:48:32.927Z,60.70
2018-05-23T06:51:01.017Z,61.43
2018-05-23T06:53:29.960Z,61.57
2018-05-23T06:55:58.094Z,63.30
2018-05-23T06:58:26.215Z,58.07
2018-05-23T07:00:54.457Z,59.27
2018-05-23T07:03:22.831Z,58.10
2018-05-23T07:05:51.356Z,59.13
2018-05-23T07:08:19.352Z,56.23
2018-05-23T07:10:50.596Z,52.43
2018-05-23T07:13:19.340Z,41.37
2018-05-23T07:15:47.798Z,34.10
2018-05-23T07:18:15.987Z,20.70
2018-05-23T07:20:44.835Z,18.70
2018-05-23T07:23:14.628Z,18.97
2018-05-23T07:25:43.019Z,16.20
2018-05-23T07:28:11.248Z,18.83
2018-05-23T07:30:39.352Z,21.10
2018-05-23T07:33:07.475Z,17.80
2018-05-23T07:35:37.159Z,20.00
2018-05-23T07:38:05.395Z,20.70
2018-05-23T07:40:33.605Z,19.00
2018-05-23T07:43:02.000Z,16.60
2018-05-23T07:45:31.109Z,17.07
2018-05-23T07:47:59.206Z,16.70
2018-05-23T07:50:27.291Z,18.33
2018-05-23T07:52:55.663Z,19.53
2018-05-23T07:55:24.703Z,20.47
2018-05-23T07:57:53.140Z,18.80
2018-05-23T08:00:21.420Z,17.00
2018-05-23T08:02:49.507Z,21.00
2018-05-23T08:05:18.327Z,23.47
2018-05-23T08:07:46.457Z,20.30
2018-05-23T08:10:15.148Z,22.90
2018-05-23T08:12:45.344Z,24.30
2018-05-23T08:15:14.473Z,19.13
2018-05-23T08:17:42.619Z,18.50
2018-05-23T08:20:11.622Z,18.23
2018-05-23T08:22:39.912Z,18.73
2018-05-23T08:25:08.002Z,19.90
2018-05-23T08:27:36.355Z,19.10
2018-05-23T08:30:04.484Z,18.70
2018-05-23T08:32:33.372Z,18.87
2018-05-23T08:35:01.607Z,17.67
2018-05-23T08:37:29.759Z,27.17
2018-05-23T08:39:58.036Z,20.50
2018-05-23T08:42:26.140Z,20.93
2018-05-23T08:44:55.020Z,20.33
2018-05-23T08:47:23.112Z,20.50
2018-05-23T08:49:51.217Z,11.60
2018-05-23T08:52:19.310Z,11.60
2018-05-23T08:54:47.655Z,13.10
2018-05-23T08:57:16.495Z,18.13
2018-05-23T08:59:44.750Z,13.67
2018-05-23T09:02:12.942Z,12.70
2018-05-23T09:04:43.443Z,14.23
2018-05-23T09:07:11.661Z,12.47
2018-05-23T09:09:39.933Z,12.57
2018-05-23T09:12:08.283Z,14.87
2018-05-23T09:14:36.368Z,12.90
2018-05-23T09:17:04.463Z,17.83
2018-05-23T09:19:32.672Z,17.97
2018-05-23T09:22:00.875Z,11.60
2018-05-23T09:24:29.089Z,15.90
2018-05-23T09:26:57.847Z,14.00
2018-05-23T09:29:25.946Z,15.27
2018-05-23T09:31:54.107Z,12.07
2018-05-23T09:34:22.400Z,10.63
2018-05-23T09:36:50.585Z,8.87
2018-05-23T09:39:19.044Z,10.13
2018-05-23T09:41:47.124Z,16.20
2018-05-23T09:44:15.321Z,11.23
2018-05-23T09:46:43.397Z,24.77
2018-05-23T09:49:12.268Z,12.10
2018-05-23T09:51:40.379Z,15.97
2018-05-23T09:54:08.713Z,17.13
2018-05-23T09:56:36.784Z,21.00
2018-05-23T09:59:05.643Z,11.50
2018-05-23T10:01:33.747Z,7.60
2018-05-23T10:04:01.819Z,8.33
2018-05-23T10:06:30.170Z,17.67
2018-05-23T10:08:58.291Z,15.73
2018-05-23T10:11:26.672Z,11.00
2018-05-23T10:13:54.860Z,8.77
2018-05-23T10:16:24.596Z,8.53
2018-05-23T10:18:52.762Z,12.20
2018-05-23T10:21:20.982Z,10.77
2018-05-23T10:23:49.103Z,9.67
2018-05-23T10:26:17.386Z,9.80
2018-05-23T10:28:45.614Z,8.43
2018-05-23T10:31:14.052Z,7.20
2018-05-23T10:33:42.310Z,8.90
2018-05-23T10:36:10.713Z,9.83
2018-05-23T10:38:38.795Z,5.90
2018-05-23T10:41:07.861Z,8.90
2018-05-23T10:43:36.106Z,11.87
2018-05-23T10:46:04.339Z,7.00
2018-05-23T10:48:32.451Z,10.30
2018-05-23T10:51:00.549Z,5.33
2018-05-23T10:53:28.797Z,5.43
2018-05-23T10:55:56.971Z,4.03
2018-05-23T10:58:25.096Z,7.00
2018-05-23T11:00:53.172Z,4.93
2018-05-23T11:03:21.592Z,3.67
2018-05-23T11:05:49.917Z,6.07
2018-05-23T11:08:18.972Z,3.80
2018-05-23T11:10:48.002Z,9.00
2018-05-23T11:13:16.461Z,11.97
2018-05-23T11:15:45.509Z,7.03
2018-05-23T11:18:14.531Z,7.77
2018-05-23T11:20:42.809Z,6.17
2018-05-23T11:23:10.884Z,5.17
2018-05-23T11:25:39.164Z,7.60
2018-05-23T11:28:07.246Z,4.43
2018-05-23T11:30:35.593Z,5.23
2018-05-23T11:33:03.907Z,5.40
2018-05-23T11:35:32.171Z,4.90
2018-05-23T11:38:01.175Z,7.60
2018-05-23T11:40:29.259Z,9.63
2018-05-23T11:42:57.672Z,7.27
2018-05-23T11:45:25.841Z,7.40
2018-05-23T11:47:54.180Z,5.30
2018-05-23T11:50:25.654Z,7.70
2018-05-23T11:52:54.000Z,12.57
2018-05-23T11:55:22.228Z,6.30
2018-05-23T11:57:50.643Z,7.57
2018-05-23T12:00:19.513Z,8.03
2018-05-23T12:02:50.167Z,9.67
2018-05-23T12:05:19.287Z,12.33
2018-05-23T12:07:48.213Z,14.63
2018-05-23T12:10:17.369Z,13.30
2018-05-23T12:12:45.852Z,7.20
2018-05-23T12:15:14.899Z,8.80
2018-05-23T12:17:46.717Z,11.43
2018-05-23T12:20:14.908Z,23.67
2018-05-23T12:22:43.104Z,5.77
2018-05-23T12:25:11.548Z,19.30
2018-05-23T12:27:39.918Z,9.73
2018-05-23T12:30:08.772Z,17.63
2018-05-23T12:32:37.216Z,8.63
2018-05-23T12:35:06.474Z,11.87
2018-05-23T12:37:35.282Z,8.70
2018-05-23T12:40:04.584Z,9.00
2018-05-23T12:42:33.336Z,7.00
2018-05-23T12:45:01.583Z,16.20
2018-05-23T12:47:29.671Z,8.50
2018-05-23T12:49:57.748Z,10.83
2018-05-23T12:52:25.832Z,14.40
2018-05-23T12:54:54.684Z,14.43
2018-05-23T12:57:23.039Z,13.47
2018-05-23T12:59:51.139Z,11.40
2018-05-23T13:02:20.041Z,11.70
2018-05-23T13:04:48.164Z,10.17
2018-05-23T13:07:17.184Z,6.57
2018-05-23T13:09:45.862Z,8.43
2018-05-23T13:12:14.692Z,13.77
2018-05-23T13:14:43.020Z,9.03
2018-05-23T13:17:11.740Z,8.47
2018-05-23T13:19:40.144Z,8.70
2018-05-23T13:22:08.400Z,7.87
2018-05-23T13:24:37.664Z,6.80
2018-05-23T13:27:05.833Z,8.73
2018-05-23T13:29:34.040Z,10.83
2018-05-23T13:32:02.460Z,12.47
2018-05-23T13:34:34.085Z,10.23
2018-05-23T13:37:02.430Z,7.10
2018-05-23T13:39:31.430Z,8.90
2018-05-23T13:41:59.741Z,8.77
2018-05-23T13:44:28.231Z,9.30
2018-05-23T13:46:56.574Z,11.03
2018-05-23T13:49:25.489Z,10.60
2018-05-23T13:51:55.249Z,13.27
2018-05-23T13:54:23.650Z,8.17
2018-05-23T13:56:52.460Z,10.30
2018-05-23T13:59:20.579Z,11.07
2018-05-23T14:01:49.496Z,10.43
2018-05-23T14:04:17.700Z,8.87
2018-05-23T14:06:45.882Z,13.67
2018-05-23T14:09:14.155Z,15.23
2018-05-23T14:11:42.375Z,11.13
2018-05-23T14:14:12.182Z,9.67
2018-05-23T14:16:40.359Z,21.30
2018-05-23T14:19:09.581Z,8.80
2018-05-23T14:21:38.884Z,10.77
2018-05-23T14:24:08.167Z,11.73
2018-05-23T14:26:36.479Z,14.37
2018-05-23T14:29:04.873Z,14.83
2018-05-23T14:31:33.929Z,11.83
2018-05-23T14:34:02.229Z,13.60
2018-05-23T14:36:31.545Z,16.43
2018-05-23T14:38:59.756Z,10.57
2018-05-23T14:41:27.933Z,7.00
2018-05-23T14:43:56.476Z,15.97
2018-05-23T14:46:25.352Z,28.50
2018-05-23T14:48:53.783Z,17.27
2018-05-23T14:51:22.009Z,18.90
2018-05-23T14:53:50.117Z,12.10
2018-05-23T14:56:18.614Z,23.83
2018-05-23T14:58:46.827Z,13.53
2018-05-23T15:01:15.893Z,15.70
2018-05-23T15:03:50.039Z,15.43
2018-05-23T15:06:20.120Z,20.93
2018-05-23T15:08:48.208Z,17.13
2018-05-23T15:11:17.605Z,15.47
2018-05-23T15:13:48.550Z,16.87
2018-05-23T15:16:18.356Z,13.10
2018-05-23T15:18:46.609Z,13.63
2018-05-23T15:21:14.972Z,14.63
2018-05-23T15:23:43.077Z,15.73
2018-05-23T15:26:11.956Z,17.13
2018-05-23T15:28:40.309Z,13.97
2018-05-23T15:31:08.427Z,14.03
2018-05-23T15:33:36.957Z,22.00
2018-05-23T15:36:06.080Z,19.07
2018-05-23T15:38:35.215Z,13.23
2018-05-23T15:41:03.318Z,15.93
2018-05-23T15:43:32.531Z,24.30
2018-05-23T15:46:02.679Z,31.80
2018-05-23T15:48:32.570Z,16.80
2018-05-23T15:51:00.829Z,34.43
2018-05-23T15:53:29.124Z,18.73
2018-05-23T15:55:57.331Z,19.03
2018-05-23T15:58:26.205Z,19.90
2018-05-23T16:00:54.757Z,13.97
2018-05-23T16:03:22.963Z,8.73
2018-05-23T16:05:51.496Z,10.40
2018-05-23T16:08:20.589Z,11.40
2018-05-23T16:10:49.160Z,10.20
2018-05-23T16:13:17.452Z,13.20
2018-05-23T16:15:45.592Z,13.00
2018-05-23T16:18:14.582Z,15.63
2018-05-23T16:20:44.385Z,10.30
2018-05-23T16:23:13.317Z,19.43
2018-05-23T16:25:41.467Z,14.70
2018-05-23T16:28:10.182Z,8.10
2018-05-23T16:30:42.610Z,19.03
2018-05-23T16:33:10.717Z,30.53
2018-05-23T16:35:39.019Z,25.13
2018-05-23T16:38:07.391Z,17.90
2018-05-23T16:40:35.585Z,16.20
2018-05-23T16:43:04.821Z,9.27
2018-05-23T16:45:39.800Z,9.33
2018-05-23T16:48:08.009Z,14.30
2018-05-23T16:50:37.223Z,28.93
2018-05-23T16:53:05.466Z,13.33
2018-05-23T16:55:33.790Z,12.77
2018-05-23T16:58:04.356Z,10.90
2018-05-23T17:00:33.721Z,8.80
2018-05-23T17:03:02.628Z,10.93
2018-05-23T17:05:30.717Z,9.10
2018-05-23T17:07:59.081Z,8.40
2018-05-23T17:10:27.233Z,9.53
2018-05-23T17:12:55.406Z,11.13
2018-05-23T17:15:23.584Z,5.90
2018-05-23T17:17:52.484Z,13.07
2018-05-23T17:20:21.477Z,6.97
2018-05-23T17:22:52.807Z,8.77
2018-05-23T17:25:22.108Z,10.27
2018-05-23T17:27:51.769Z,10.30
2018-05-23T17:30:20.892Z,7.83
2018-05-23T17:32:49.168Z,6.73
2018-05-23T17:35:17.244Z,8.77
2018-05-23T17:37:45.332Z,12.23
2018-05-23T17:40:15.282Z,23.60
2018-05-23T17:42:44.112Z,11.07
2018-05-23T17:45:12.319Z,11.80
2018-05-23T17:47:40.596Z,16.87
2018-05-23T17:50:09.105Z,14.27
2018-05-23T17:52:37.244Z,12.60
2018-05-23T17:55:06.445Z,10.87
2018-05-23T17:57:35.662Z,14.83
2018-05-23T18:00:07.407Z,15.57
2018-05-23T18:02:38.323Z,5.33
2018-05-23T18:05:06.657Z,7.80
2018-05-23T18:07:34.788Z,6.10
2018-05-23T18:10:02.970Z,5.33
2018-05-23T18:12:31.983Z,6.93
2018-05-23T18:15:01.148Z,14.80
2018-05-23T18:17:29.272Z,5.17
2018-05-23T18:19:58.337Z,8.30
2018-05-23T18:22:27.266Z,11.60
2018-05-23T18:24:58.984Z,30.27
2018-05-23T18:27:27.360Z,25.00
2018-05-23T18:29:56.258Z,8.17
2018-05-23T18:32:25.209Z,8.60
2018-05-23T18:34:54.550Z,35.67
2018-05-23T18:37:24.026Z,22.57
2018-05-23T18:39:52.280Z,16.67
2018-05-23T18:42:20.467Z,8.23
2018-05-23T18:44:49.483Z,7.73
2018-05-23T18:47:19.399Z,17.23
2018-05-23T18:49:50.070Z,10.23
2018-05-23T18:52:18.191Z,14.23
2018-05-23T18:54:47.634Z,22.33
2018-05-23T18:57:16.933Z,7.00
2018-05-23T18:59:44.971Z,38.93
2018-05-23T19:02:13.201Z,25.73
2018-05-23T19:04:42.351Z,13.93
2018-05-23T19:07:11.638Z,11.30
2018-05-23T19:09:42.048Z,7.43
2018-05-23T19:12:11.084Z,9.27
2018-05-23T19:14:39.237Z,9.23
2018-05-23T19:17:08.374Z,17.37
2018-05-23T19:19:38.779Z,35.30
2018-05-23T19:22:06.990Z,71.07
2018-05-23T19:24:35.101Z,16.50
2018-05-23T19:27:04.039Z,9.97
2018-05-23T19:29:32.201Z,8.50
2018-05-23T19:32:00.489Z,13.93
2018-05-23T19:34:28.609Z,33.20
2018-05-23T19:36:56.690Z,6.27
2018-05-23T19:39:25.170Z,5.40
2018-05-23T19:41:53.589Z,14.07
2018-05-23T19:44:23.114Z,19.70
2018-05-23T19:46:51.278Z,19.60
2018-05-23T19:49:21.197Z,11.97
2018-05-23T19:51:50.182Z,19.00
2018-05-23T19:54:19.292Z,24.20
2018-05-23T19:56:47.511Z,7.87
2018-05-23T19:59:17.380Z,5.37
2018-05-23T20:01:46.542Z,47.73
2018-05-23T20:04:15.438Z,18.17
2018-05-23T20:06:44.336Z,16.00
2018-05-23T20:09:14.295Z,5.97
2018-05-23T20:11:42.405Z,11.63
2018-05-23T20:14:10.587Z,8.17
2018-05-23T20:16:38.832Z,5.23
2018-05-23T20:19:07.136Z,4.90
2018-05-23T20:21:35.463Z,12.33
2018-05-23T20:24:04.741Z,4.80
2018-05-23T20:26:32.895Z,5.80
2018-05-23T20:29:01.067Z,14.20
2018-05-23T20:31:29.308Z,36.07
2018-05-23T20:33:57.776Z,13.43
2018-05-23T20:36:26.023Z,13.73
2018-05-23T20:38:55.989Z,10.83
2018-05-23T20:41:24.661Z,45.80
2018-05-23T20:43:53.137Z,44.07
2018-05-23T20:46:24.761Z,10.20
2018-05-23T20:48:54.523Z,19.63
2018-05-23T20:51:22.872Z,8.93
2018-05-23T20:53:52.025Z,7.43
2018-05-23T20:56:20.452Z,16.43
2018-05-23T20:58:50.505Z,6.93
2018-05-23T21:01:18.593Z,10.77
2018-05-23T21:03:47.468Z,21.43
2018-05-23T21:06:15.672Z,10.50
2018-05-23T21:08:44.973Z,6.87
2018-05-23T21:11:14.263Z,13.20
2018-05-23T21:13:47.283Z,23.30
2018-05-23T21:16:17.101Z,7.10
2018-05-23T21:18:50.030Z,10.70
2018-05-23T21:21:18.975Z,16.17
2018-05-23T21:23:47.144Z,45.30
2018-05-23T21:26:17.287Z,8.27
2018-05-23T21:28:45.547Z,20.37
2018-05-23T21:31:14.064Z,24.37
2018-05-23T21:33:42.562Z,14.30
2018-05-23T21:36:11.956Z,8.13
2018-05-23T21:38:40.118Z,7.80
2018-05-23T21:41:09.074Z,4.87
2018-05-23T21:43:37.366Z,5.17
2018-05-23T21:46:05.465Z,7.20
2018-05-23T21:48:33.946Z,9.70
2018-05-23T21:51:02.103Z,4.90
2018-05-23T21:53:30.388Z,42.17
2018-05-23T21:55:58.509Z,11.83
2018-05-23T21:58:27.356Z,9.37
2018-05-23T22:00:55.467Z,7.67
2018-05-23T22:03:25.360Z,7.30
2018-05-23T22:05:53.427Z,4.73
2018-05-23T22:08:21.514Z,4.50
2018-05-23T22:10:49.648Z,8.80
2018-05-23T22:13:17.757Z,6.87
2018-05-23T22:15:45.858Z,6.10
2018-05-23T22:18:13.967Z,4.23
2018-05-23T22:20:42.082Z,4.90
2018-05-23T22:23:10.919Z,4.20
2018-05-23T22:25:39.002Z,5.80
2018-05-23T22:28:07.091Z,10.43
2018-05-23T22:30:35.169Z,4.73
2018-05-23T22:33:03.269Z,7.03
2018-05-23T22:35:31.369Z,10.60
2018-05-23T22:37:59.669Z,5.90
2018-05-23T22:40:27.909Z,5.47
2018-05-23T22:42:56.002Z,7.03
2018-05-23T22:45:24.192Z,5.13
2018-05-23T22:47:52.442Z,5.33
2018-05-23T22:50:21.638Z,5.97
2018-05-23T22:52:49.828Z,4.80
2018-05-23T22:55:18.846Z,13.63
2018-05-23T22:57:46.996Z,5.27
2018-05-23T23:00:22.637Z,8.90
2018-05-23T23:02:50.906Z,9.30
2018-05-23T23:05:19.564Z,5.93
2018-05-23T23:07:49.204Z,6.80
2018-05-23T23:10:17.551Z,7.33
2018-05-23T23:12:47.273Z,4.30
2018-05-23T23:15:15.480Z,5.67
2018-05-23T23:17:43.570Z,5.00
2018-05-23T23:20:12.422Z,6.03
2018-05-23T23:22:40.665Z,5.07
2018-05-23T23:25:08.855Z,5.27
2018-05-23T23:27:37.577Z,4.40
2018-05-23T23:30:05.926Z,6.30
2018-05-23T23:32:34.741Z,5.33
2018-05-23T23:35:04.773Z,9.40
2018-05-23T23:37:32.878Z,10.60
2018-05-23T23:40:01.171Z,6.17
2018-05-23T23:42:32.140Z,7.57
2018-05-23T23:45:00.365Z,7.90
2018-05-23T23:47:28.697Z,6.00
2018-05-23T23:49:56.793Z,5.00
2018-05-23T23:52:25.823Z,8.57
2018-05-23T23:54:54.748Z,5.20
2018-05-23T23:57:23.109Z,6.73
2018-05-23T23:59:51.368Z,10.03
